NCAR-RAP Real-Time Weather Data

Output produced by METARs form (08 May 2021  16:58 UTC)
found at http://weather.rap.ucar.edu/surface/
 
KJAX 081556Z VRB05KT 10SM FEW250 23/04 A3015 RMK AO2 SLP209 T02280039
KJAX 081456Z 08006KT 10SM FEW250 22/05 A3015 RMK AO2 SLP210 T02220050 51006
KJAX 081356Z 36005KT 10SM CLR 21/07 A3014 RMK AO2 SLP207 T02060072
KJAX 081256Z 36007KT 10SM FEW250 17/08 A3015 RMK AO2 SLP210 T01720078 $
KJAX 081156Z 36003KT 10SM CLR 13/07 A3013 RMK AO2 SLP204 T01330072 10133 20078 53019 $
KJAX 081056Z 00000KT 10SM CLR 09/06 A3011 RMK AO2 SLP196 T00890061 $
KJAX 080956Z 00000KT 10SM CLR 09/07 A3008 RMK AO2 SLP188 T00890067 $
KJAX 080856Z 00000KT 10SM CLR 08/07 A3007 RMK AO2 SLP184 T00830067 55003 $
KJAX 080756Z 00000KT 10SM CLR 08/07 A3007 RMK AO2 SLP184 T00830067 $
KJAX 080656Z 26003KT 10SM CLR 09/07 A3008 RMK AO2 SLP186 T00940072 $
KJAX 080556Z 26003KT 10SM CLR 11/08 A3008 RMK AO2 SLP188 T01060078 10222 20106 51007 $
KJAX 080456Z 00000KT 10SM CLR 12/08 A3008 RMK AO2 SLP186 T01220078 402720122 $
KJAX 080356Z 00000KT 10SM CLR 13/08 A3008 RMK AO2 SLP186 T01330078 $
KJAX 080256Z 32004KT 10SM CLR 17/06 A3006 RMK AO2 SLP181 T01670061 53030 $
KJAX 080156Z 30004KT 10SM CLR 17/08 A3003 RMK AO2 SLP171 T01670083
KJAX 080056Z 29005KT 10SM CLR 18/07 A3000 RMK AO2 SLP160 T01780072
KJAX 072356Z 30006KT 10SM CLR 22/06 A2998 RMK AO2 SLP151 T02220061 10272 20217 53005
KJAX 072256Z 31008KT 10SM CLR 25/05 A2997 RMK AO2 SLP149 T02500050
KJAX 072156Z 29012G21KT 10SM CLR 26/04 A2996 RMK AO2 SLP146 T02610044
KJAX 072056Z 30015G25KT 10SM CLR 27/04 A2996 RMK AO2 PK WND 28030/2043 SLP146 T02670039 56015
KJAX 071956Z 28014G26KT 10SM CLR 27/06 A2997 RMK AO2 PK WND 28026/1952 SLP149 T02670056
KJAX 071856Z 29011G23KT 10SM CLR 27/05 A2999 RMK AO2 PK WND 28028/1835 SLP155 T02670050
KJAX 071756Z 30013G19KT 10SM CLR 26/07 A3000 RMK AO2 SLP161 T02610072 10261 20156 58010
KJAX 071656Z 29013G24KT 10SM CLR 25/07 A3002 RMK AO2 SLP168 T02500072
KJAX 071556Z 29014G22KT 10SM CLR 24/06 A3003 RMK AO2 PK WND 29027/1523 SLP170 T02390056
KJAX 071456Z 31013G25KT 10SM CLR 23/07 A3003 RMK AO2 SLP171 T02280072 51005
KJAX 071356Z 32013G17KT 10SM CLR 21/09 A3003 RMK AO2 SLP171 T02060094
KJAX 071256Z 31006KT 10SM CLR 19/11 A3003 RMK AO2 SLP169 T01890106
KJAX 071156Z 28007KT 10SM CLR 16/12 A3002 RMK AO2 SLP166 70001 T01560117 10172 20133 53013
KJAX 071056Z 29006KT 10SM CLR 13/11 A3000 RMK AO2 SLP158 T01330111
KJAX 070956Z 29005KT 10SM FEW250 13/11 A2998 RMK AO2 SLP153 T01330111
KJAX 070856Z 28005KT 10SM SCT250 14/12 A2998 RMK AO2 SLP153 T01440117 55001
KJAX 070756Z 27003KT 10SM BKN250 15/13 A2998 RMK AO2 SLP151 T01500128
KJAX 070656Z 30003KT 10SM BKN250 16/14 A2998 RMK AO2 SLP152 T01610139
KJAX 070556Z 27005KT 10SM BKN250 17/14 A2998 RMK AO2 SLP154 T01670144 10244 20167 53006
KJAX 070456Z 28004KT 10SM BKN250 18/16 A2998 RMK AO2 SLP152 T01830156 402890183
KJAX 070356Z 29006KT 10SM OVC250 20/16 A2997 RMK AO2 SLP149 T02000156
KJAX 070256Z 28005KT 10SM OVC250 21/17 A2997 RMK AO2 SLP147 T02110167 53009
KJAX 070156Z 27004KT 10SM BKN250 22/17 A2995 RMK AO2 SLP143 T02170167
KJAX 070056Z 25007KT 10SM BKN250 23/17 A2994 RMK AO2 SLP140 T02280167
KJAX 062356Z 25005KT 10SM FEW040 FEW110 BKN250 24/17 A2994 RMK AO2 SLP138 T02440172 10289 20239 53004
KJAX 062256Z 28006KT 10SM FEW040 BKN250 26/17 A2992 RMK AO2 SLP131 T02610167
KJAX 062156Z 29011KT 10SM FEW040 BKN250 28/16 A2992 RMK AO2 SLP132 T02830161
KJAX 062056Z 30011KT 10SM FEW035 SCT160 BKN250 28/18 A2993 RMK AO2 SLP134 T02780183 56019
KJAX 061956Z 30011G20KT 10SM SCT030 SCT150 BKN250 28/18 A2994 RMK AO2 SLP138 T02830183
KJAX 061856Z 26011KT 10SM SCT026 BKN080 BKN160 BKN250 27/19 A2996 RMK AO2 SLP146 T02720194
KJAX 061756Z 25007KT 10SM FEW015 FEW040 SCT080 BKN160 BKN250 25/21 A2998 RMK AO2 SLP153 60001 T02500206 10250 20217 58024